DABB/AAE METAR and TAF weather

Enter ICAO airport designator
Station Type Date Time Source
DABB METAR 2021/05/11 22:00 UTC NOAA

DABB 112200Z 29008KT 9999 FEW023 17/10 Q1020


Station Type Date Time Source
DABB Decoded METAR 2021/05/11 22:00 UTC NOAA

Annaba, Algeria (DABB) 36-50N 007-49E 4M
May 11, 2021 - 06:00 PM EDT / 2021.05.11 2200 UTC
Wind: from the WNW (290 degrees) at 9 MPH (8 KT):0
Visibility: greater than 7 mile(s):0
Sky conditions: mostly clear
Temperature: 62 F (17 C)
Dew Point: 50 F (10 C)
Relative Humidity: 63%
Pressure (altimeter): 30.12 in. Hg (1020 hPa)
ob: DABB 112200Z 29008KT 9999 FEW023 17/10 Q1020
cycle: 22

Station Type Date Time Source
DABB TAF 2021/05/11 18:33 UTC NOAA

TAF DABB 111700Z 1118/1218 30014KT 9999 FEW023 SCT030 PROB40
TEMPO 1118/1122 32015G25KT FEW030TCU

Example: see airport list